ADDS TAF Board (Experimental) INFO Settings

IDs: Format: Expanded Condensed

KATL - Atlanta/Hartsfield-J, GA, US

Issued at 0334 UTC 27 Feb 2015
Updated at: 0401 UTC 27 Feb 2015
Time0352Z 27/04Z 27/05Z 27/06Z 27/07Z 27/08Z 27/09Z 27/10Z 27/11Z 27/12Z 27/13Z 27/14Z 27/15Z 27/16Z
Type OBS PRVL PRVL PRVL PRVL PRVL PRVL PRVL PRVL PRVL PRVL PRVL PRVL PRVL
VIS 10 >6 >6 >6 >6 >6 >6 >6 >6 >6 >6 >6 >6 >6
CIG 250 -- -- -- -- -- -- -- -- -- -- -- -- --
Cover BKN SCT SCT SCT SCT SCT SCT SCT SCT SCT FEW FEW SCT SCT
FltCat VFR VFR VFR VFR VFR VFR VFR VFR VFR VFR VFR VFR VFR VFR
WX -- -- -- -- -- -- -- -- -- -- -- -- -- --
WDir 320 320 320 320 320 320 320 320 320 320 340 340 340 340
WSpd 4 5 5 5 5 5 5 5 5 5 8 8 8 8
WGst -- -- -- -- -- -- -- -- -- -- -- -- -- --
R08/26
XWnd 3 4 4 4 4 4 4 4 4 4 8 8 8 8
HWnd -3 -3 -3 -3 -3 -3 -3 -3 -3 -3 -3 -3 -3 -3
R09/27
XWnd 3 4 4 4 4 4 4 4 4 4 8 8 8 8
HWnd -3 -3 -3 -3 -3 -3 -3 -3 -3 -3 -3 -3 -3 -3
R10/28
XWnd 3 4 4 4 4 4 4 4 4 4 8 8 8 8
HWnd -3 -3 -3 -3 -3 -3 -3 -3 -3 -3 -3 -3 -3 -3

NOTE: TEMPO conditions in [brackets]. Keep in mind TEMPO conditions might be better (lower impact) than prevailing conditions.

Raw TAF
KATL 270334Z 2704/2806 32005KT P6SM SCT250
  FM271300 34008KT P6SM FEW010
  FM271500 34008KT P6SM SCT250


Raw METAR
KATL 270352Z 32004KT 10SM BKN250 01/M02 A3016 RMK AO2 SLP222 T00111017
KATL 270252Z 31005KT 10SM FEW028 SCT250 02/M01 A3014 RMK AO2 SLP214 T00171011 51022
KATL 270152Z 31006KT 10SM FEW026 BKN250 03/M02 A3012 RMK AO2 SLP208 T00281017
KATL 270115Z 34008KT 10SM SCT022 BKN250 03/M02 A3011 RMK AO2
KATL 270052Z 33010KT 10SM OVC020 03/M01 A3010 RMK AO2 SLP201 T00331011

METAR Board
Radar Display
Forecast Discussion

TAF Board Legend

Potential Impact
Threat None Slight Moderate High
Visibility (sm) ≥5.1 5.1>X≥3 3>X≥1 <1
Ceiling (100 ft) ≥30.1 30.1>X≥10 10>X≥5 <5
Wind Speed (kt) <10 10≤X<20 20≤X<30 ≥30
Wind Gust (kt) <15 15≤X<25 25≤X<35 ≥35
Weather No Wx Reported VCTS,-TS,-FZRA,SN TS,FZRA +TS,+FZRA,+SN